TimeAKST,TemperatureF,Dew PointF,Humidity,Sea Level PressureIn,VisibilityMPH,Wind Direction,Wind SpeedMPH,Gust SpeedMPH,PrecipitationIn,Events,Conditions,WindDirDegrees,DateUTC
12:53 AM,28.0,25.0,88,30.10,10.0,NNW,4.6,-,N/A,,Clear,330,2014-01-03 09:53:00
1:53 AM,27.0,25.0,92,30.11,10.0,Calm,Calm,-,N/A,,Clear,0,2014-01-03 10:53:00
3:48 AM,28.4,24.8,86,30.15,10.0,North,6.9,-,N/A,,Mostly Cloudy,360,2014-01-03 12:48:00
3:53 AM,28.9,25.0,85,30.15,10.0,North,5.8,-,N/A,,Mostly Cloudy,10,2014-01-03 12:53:00
4:42 AM,28.4,24.8,86,30.15,10.0,NNW,4.6,-,N/A,,Scattered Clouds,340,2014-01-03 13:42:00
4:53 AM,28.0,25.0,88,30.16,10.0,NNW,4.6,-,N/A,,Mostly Cloudy,340,2014-01-03 13:53:00
5:53 AM,28.0,25.0,88,30.17,10.0,NNW,6.9,-,N/A,,Overcast,340,2014-01-03 14:53:00
6:53 AM,28.9,25.0,85,30.18,10.0,Calm,Calm,-,N/A,,Overcast,0,2014-01-03 15:53:00
7:45 AM,28.4,26.6,93,30.19,10.0,West,3.5,-,N/A,,Overcast,280,2014-01-03 16:45:00
7:53 AM,28.9,26.1,89,30.20,10.0,Calm,Calm,-,N/A,,Overcast,0,2014-01-03 16:53:00
8:53 AM,30.9,27.0,85,30.22,10.0,NW,5.8,-,0.00,,Overcast,320,2014-01-03 17:53:00
9:53 AM,30.0,28.0,92,30.23,10.0,NE,4.6,-,0.00,,Overcast,50,2014-01-03 18:53:00
10:27 AM,30.2,28.4,93,30.22,10.0,Calm,Calm,-,N/A,,Overcast,0,2014-01-03 19:27:00
10:53 AM,30.9,28.0,89,30.23,10.0,Calm,Calm,-,N/A,,Overcast,0,2014-01-03 19:53:00
11:53 AM,30.9,28.9,92,30.25,3.0,NNW,4.6,-,0.00,Snow,Light Snow,340,2014-01-03 20:53:00
12:35 PM,33.8,30.2,87,30.24,8.0,ENE,3.5,-,0.00,Snow,Light Snow,70,2014-01-03 21:35:00
12:42 PM,33.8,30.2,87,30.24,9.0,Calm,Calm,-,0.00,,Overcast,0,2014-01-03 21:42:00
12:49 PM,32.0,30.2,93,30.24,4.0,Calm,Calm,-,0.00,Snow,Light Snow,0,2014-01-03 21:49:00
12:53 PM,32.0,30.0,92,30.25,2.5,Calm,Calm,-,0.00,Snow,Light Snow,0,2014-01-03 21:53:00
1:05 PM,32.0,30.2,93,30.26,7.0,Calm,Calm,-,0.01,Snow,Light Snow,0,2014-01-03 22:05:00
1:53 PM,34.0,30.0,85,30.26,10.0,Calm,Calm,-,0.01,,Overcast,0,2014-01-03 22:53:00
2:08 PM,33.8,30.2,87,30.26,2.5,Calm,Calm,-,0.00,Snow,Light Snow,0,2014-01-03 23:08:00
2:15 PM,33.8,30.2,87,30.25,7.0,Calm,Calm,-,0.00,Snow,Light Snow,0,2014-01-03 23:15:00
2:53 PM,33.1,30.9,92,30.25,5.0,Calm,Calm,-,0.01,Snow,Light Snow,0,2014-01-03 23:53:00
3:53 PM,33.1,32.0,96,30.26,9.0,North,3.5,-,0.01,Rain,Light Rain,350,2014-01-04 00:53:00
4:24 PM,33.8,32.0,93,30.26,10.0,Calm,Calm,-,0.00,Rain,Light Rain,0,2014-01-04 01:24:00
4:53 PM,34.0,32.0,92,30.26,10.0,Calm,Calm,-,0.00,Rain,Light Rain,0,2014-01-04 01:53:00
5:46 PM,33.8,32.0,93,30.26,10.0,Calm,Calm,-,0.00,,Overcast,0,2014-01-04 02:46:00
5:53 PM,33.1,32.0,96,30.26,10.0,Calm,Calm,-,0.00,,Overcast,0,2014-01-04 02:53:00
6:53 PM,35.1,32.0,89,30.26,10.0,Calm,Calm,-,N/A,,Overcast,0,2014-01-04 03:53:00
7:11 PM,33.8,32.0,93,30.25,10.0,Calm,Calm,-,N/A,,Overcast,0,2014-01-04 04:11:00
7:50 PM,33.8,30.2,87,30.25,10.0,Calm,Calm,-,N/A,,Overcast,0,2014-01-04 04:50:00
7:53 PM,33.1,30.9,92,30.25,10.0,Calm,Calm,-,N/A,,Overcast,0,2014-01-04 04:53:00
8:53 PM,33.1,32.0,96,30.24,10.0,Calm,Calm,-,0.00,Rain,Light Rain,0,2014-01-04 05:53:00
9:53 PM,33.1,32.0,96,30.24,7.0,Calm,Calm,-,0.00,,Overcast,0,2014-01-04 06:53:00
10:17 PM,33.8,32.0,93,30.24,7.0,Calm,Calm,-,N/A,,Overcast,0,2014-01-04 07:17:00
10:53 PM,33.1,32.0,96,30.23,8.0,Calm,Calm,-,N/A,,Overcast,0,2014-01-04 07:53:00
11:53 PM,34.0,30.9,89,30.22,10.0,Calm,Calm,-,N/A,,Mostly Cloudy,0,2014-01-04 08:53:00